createdAt,value
2023-04-30T00:00:36.833Z,45.00
2023-04-30T00:01:38.392Z,41.75
2023-04-30T00:02:42.226Z,45.50
2023-04-30T00:03:43.755Z,43.00
2023-04-30T00:04:46.239Z,42.75
2023-04-30T00:05:50.081Z,41.25
2023-04-30T00:06:52.537Z,43.00
2023-04-30T00:07:53.971Z,45.75
2023-04-30T00:08:56.517Z,43.00
2023-04-30T00:09:57.942Z,40.25
2023-04-30T00:11:00.354Z,45.50
2023-04-30T00:12:01.943Z,44.00
2023-04-30T00:13:04.313Z,44.75
2023-04-30T00:14:05.737Z,43.00
2023-04-30T00:15:08.468Z,44.00
2023-04-30T00:16:10.828Z,42.75
2023-04-30T00:17:13.272Z,43.50
2023-04-30T00:18:16.058Z,44.75
2023-04-30T00:19:18.427Z,43.75
2023-04-30T00:20:19.816Z,43.25
2023-04-30T00:21:22.232Z,42.25
2023-04-30T00:22:23.801Z,43.75
2023-04-30T00:23:26.183Z,43.50
2023-04-30T00:24:29.022Z,43.00
2023-04-30T00:25:31.378Z,46.75
2023-04-30T00:26:32.764Z,40.00
2023-04-30T00:27:35.169Z,42.25
2023-04-30T00:28:36.560Z,47.00
2023-04-30T00:29:39.061Z,44.00
2023-04-30T00:30:40.528Z,43.75
2023-04-30T00:31:42.975Z,43.75
2023-04-30T00:32:46.110Z,43.00
2023-04-30T00:33:49.909Z,45.00
2023-04-30T00:34:51.289Z,40.50
2023-04-30T00:35:53.646Z,41.25
2023-04-30T00:36:55.056Z,43.50
2023-04-30T00:37:57.589Z,41.75
2023-04-30T00:38:59.017Z,44.75
2023-04-30T00:40:01.378Z,44.50
2023-04-30T00:41:02.765Z,42.00
2023-04-30T00:42:05.128Z,41.75
2023-04-30T00:43:06.687Z,42.25
2023-04-30T00:44:09.048Z,43.25
2023-04-30T00:45:11.786Z,42.50
2023-04-30T00:46:14.344Z,43.50
2023-04-30T00:47:15.755Z,43.75
2023-04-30T00:48:18.137Z,43.75
2023-04-30T00:49:21.118Z,41.25
2023-04-30T00:50:23.564Z,42.00
2023-04-30T00:51:25.022Z,46.50
2023-04-30T00:52:27.616Z,40.25
2023-04-30T00:53:29.107Z,45.00
2023-04-30T00:54:31.463Z,43.75
2023-04-30T00:55:32.868Z,45.50
2023-04-30T00:56:35.933Z,44.00
2023-04-30T00:57:37.324Z,43.50
2023-04-30T00:58:39.771Z,44.00
2023-04-30T00:59:41.362Z,46.50
2023-04-30T01:00:47.003Z,43.50
2023-04-30T01:01:48.651Z,44.25
2023-04-30T01:02:51.300Z,39.75
2023-04-30T01:03:52.815Z,43.25
2023-04-30T01:04:56.864Z,39.75
2023-04-30T01:05:58.262Z,44.00
2023-04-30T01:07:02.110Z,41.00
2023-04-30T01:08:03.745Z,41.00
2023-04-30T01:09:06.203Z,43.25
2023-04-30T01:10:08.503Z,42.75
2023-04-30T01:11:14.304Z,44.00
2023-04-30T01:12:16.762Z,42.25
2023-04-30T01:13:20.997Z,42.50
2023-04-30T01:14:25.492Z,42.50
2023-04-30T01:15:29.130Z,42.75
2023-04-30T01:16:31.112Z,45.50
2023-04-30T01:17:35.031Z,46.25
2023-04-30T01:18:37.864Z,44.75
2023-04-30T01:19:42.759Z,42.00
2023-04-30T01:20:47.690Z,41.00
2023-04-30T01:21:50.099Z,43.75
2023-04-30T01:22:52.660Z,42.50
2023-04-30T01:24:09.927Z,44.75
2023-04-30T01:25:15.307Z,42.25
2023-04-30T01:26:21.185Z,42.75
2023-04-30T01:27:30.912Z,41.00
2023-04-30T01:28:34.634Z,37.00
2023-04-30T01:29:36.040Z,42.50
2023-04-30T01:30:40.697Z,40.75
2023-04-30T01:31:43.531Z,41.00
2023-04-30T01:32:46.149Z,41.75
2023-04-30T01:33:47.604Z,39.25
2023-04-30T01:34:50.142Z,37.00
2023-04-30T01:36:03.930Z,41.00
2023-04-30T01:37:15.433Z,43.50
2023-04-30T01:38:19.829Z,43.25
2023-04-30T01:39:28.590Z,44.00
2023-04-30T01:40:33.036Z,46.25
2023-04-30T01:41:36.240Z,43.50
2023-04-30T01:42:41.730Z,45.50
2023-04-30T01:43:46.054Z,44.50
2023-04-30T01:44:59.990Z,44.75
2023-04-30T01:46:03.219Z,44.75
2023-04-30T01:47:06.410Z,41.00
2023-04-30T01:48:08.313Z,45.75
2023-04-30T01:49:13.069Z,42.00
2023-04-30T01:50:15.827Z,42.75
2023-04-30T01:51:20.746Z,39.50
2023-04-30T01:52:23.186Z,43.00
2023-04-30T01:53:25.764Z,42.75
2023-04-30T01:54:28.706Z,41.50
2023-04-30T01:55:31.887Z,41.00
2023-04-30T01:56:35.928Z,41.75
2023-04-30T01:57:38.757Z,41.00
2023-04-30T01:58:40.158Z,38.75
2023-04-30T01:59:43.893Z,40.00
2023-04-30T02:00:46.367Z,41.75
2023-04-30T02:01:47.849Z,37.00
2023-04-30T02:02:50.374Z,42.00
2023-04-30T02:03:52.094Z,42.75
2023-04-30T02:04:54.503Z,41.50
2023-04-30T02:05:55.959Z,38.75
2023-04-30T02:06:58.862Z,39.00
2023-04-30T02:08:00.294Z,44.75
2023-04-30T02:09:05.376Z,45.67
2023-04-30T02:10:07.258Z,48.00
2023-04-30T02:11:09.634Z,46.25
2023-04-30T02:12:11.125Z,42.00
2023-04-30T02:13:13.510Z,45.50
2023-04-30T02:14:14.888Z,40.50
2023-04-30T02:15:18.615Z,41.50
2023-04-30T02:16:20.040Z,42.50
2023-04-30T02:17:22.553Z,42.75
2023-04-30T02:18:24.002Z,44.00
2023-04-30T02:19:26.404Z,42.75
2023-04-30T02:20:27.795Z,41.50
2023-04-30T02:21:30.172Z,45.75
2023-04-30T02:22:31.659Z,41.00
2023-04-30T02:23:34.026Z,39.75
2023-04-30T02:24:35.521Z,43.00
2023-04-30T02:25:38.974Z,45.50
2023-04-30T02:26:40.453Z,40.50
2023-04-30T02:27:42.890Z,44.25
2023-04-30T02:28:44.288Z,39.75
2023-04-30T02:29:46.990Z,44.50
2023-04-30T02:30:49.729Z,37.00
2023-04-30T02:31:52.113Z,42.50
2023-04-30T02:32:53.641Z,45.75
2023-04-30T02:33:56.113Z,49.00
2023-04-30T02:34:57.550Z,55.50
2023-04-30T02:36:00.762Z,42.25
2023-04-30T02:37:03.084Z,46.00
2023-04-30T02:38:05.560Z,39.00
2023-04-30T02:39:06.980Z,36.50
2023-04-30T02:40:10.537Z,39.75
2023-04-30T02:41:11.949Z,33.50
2023-04-30T02:42:14.322Z,34.50
2023-04-30T02:43:15.771Z,33.75
2023-04-30T02:44:18.123Z,33.00
2023-04-30T02:45:19.524Z,34.75
2023-04-30T02:46:23.301Z,36.50
2023-04-30T02:47:24.733Z,32.25
2023-04-30T02:48:27.181Z,30.75
2023-04-30T02:49:28.613Z,35.00
2023-04-30T02:50:30.976Z,36.50
2023-04-30T02:51:32.734Z,32.75
2023-04-30T02:52:35.093Z,35.25
2023-04-30T02:53:36.656Z,33.50
2023-04-30T02:54:39.027Z,39.00
2023-04-30T02:55:40.636Z,32.75
2023-04-30T02:56:43.770Z,34.25
2023-04-30T02:57:45.280Z,33.25
2023-04-30T02:58:47.751Z,30.00
2023-04-30T02:59:49.195Z,31.25
2023-04-30T03:00:51.591Z,31.00
2023-04-30T03:01:54.400Z,36.25
2023-04-30T03:02:56.908Z,39.75
2023-04-30T03:03:58.513Z,31.00
2023-04-30T03:05:00.882Z,34.00
2023-04-30T03:06:02.293Z,33.75
2023-04-30T03:07:06.770Z,30.75
2023-04-30T03:08:08.178Z,36.75
2023-04-30T03:09:10.614Z,34.25
2023-04-30T03:10:11.991Z,34.75
2023-04-30T03:11:14.345Z,38.50
2023-04-30T03:12:15.777Z,34.25
2023-04-30T03:13:18.130Z,37.75
2023-04-30T03:14:19.543Z,37.00
2023-04-30T03:15:21.961Z,32.50
2023-04-30T03:16:23.444Z,29.75
2023-04-30T03:17:27.223Z,31.00
2023-04-30T03:18:28.712Z,30.00
2023-04-30T03:19:31.811Z,35.50
2023-04-30T03:20:33.229Z,35.50
2023-04-30T03:21:35.648Z,30.50
2023-04-30T03:22:37.065Z,31.25
2023-04-30T03:23:39.446Z,34.75
2023-04-30T03:24:41.249Z,37.25
2023-04-30T03:25:44.122Z,33.00
2023-04-30T03:26:45.569Z,34.50
2023-04-30T03:27:47.948Z,34.75
2023-04-30T03:28:49.524Z,35.50
2023-04-30T03:29:52.201Z,36.00
2023-04-30T03:30:53.736Z,35.50
2023-04-30T03:31:56.324Z,33.50
2023-04-30T03:32:59.383Z,31.75
2023-04-30T03:34:01.787Z,32.25
2023-04-30T03:35:04.231Z,32.50
2023-04-30T03:36:07.362Z,29.50
2023-04-30T03:37:08.775Z,33.50
2023-04-30T03:38:11.174Z,30.25
2023-04-30T03:39:12.821Z,35.00
2023-04-30T03:40:15.287Z,32.25
2023-04-30T03:41:16.710Z,30.00
2023-04-30T03:42:19.108Z,33.75
2023-04-30T03:43:20.815Z,31.00
2023-04-30T03:44:23.257Z,30.50
2023-04-30T03:45:24.808Z,30.25
2023-04-30T03:46:27.223Z,30.25
2023-04-30T03:47:28.735Z,29.75
2023-04-30T03:48:32.488Z,30.00
2023-04-30T03:49:33.916Z,35.25
2023-04-30T03:50:36.441Z,29.00
2023-04-30T03:51:39.718Z,32.25
2023-04-30T03:52:42.098Z,30.00
2023-04-30T03:53:43.518Z,27.25
2023-04-30T03:54:45.935Z,27.00
2023-04-30T03:55:47.989Z,29.75
2023-04-30T03:56:50.369Z,33.00
2023-04-30T03:57:51.777Z,31.25
2023-04-30T03:58:54.129Z,29.50
2023-04-30T03:59:55.712Z,31.50
2023-04-30T04:00:58.433Z,30.50
2023-04-30T04:02:00.197Z,29.00
2023-04-30T04:03:02.773Z,29.00
2023-04-30T04:04:05.642Z,28.25
2023-04-30T04:05:08.231Z,29.50
2023-04-30T04:06:09.703Z,28.00
2023-04-30T04:07:12.069Z,30.00
2023-04-30T04:08:14.078Z,27.25
2023-04-30T04:09:16.431Z,25.00
2023-04-30T04:10:17.809Z,29.00
2023-04-30T04:11:20.819Z,29.00
2023-04-30T04:12:22.412Z,25.25
2023-04-30T04:13:24.792Z,25.00
2023-04-30T04:14:26.198Z,25.00
2023-04-30T04:15:28.556Z,28.50
2023-04-30T04:16:30.135Z,26.00
2023-04-30T04:17:32.652Z,28.00
2023-04-30T04:18:34.096Z,26.50
2023-04-30T04:19:37.848Z,33.50
2023-04-30T04:20:39.232Z,26.25
2023-04-30T04:21:41.790Z,27.50
2023-04-30T04:22:43.224Z,25.25
2023-04-30T04:23:45.640Z,26.00
2023-04-30T04:24:47.986Z,25.00
2023-04-30T04:25:50.818Z,29.75
2023-04-30T04:26:52.370Z,27.75
2023-04-30T04:27:54.737Z,24.25
2023-04-30T04:28:56.158Z,28.75
2023-04-30T04:29:58.613Z,28.00
2023-04-30T04:31:00.028Z,27.25
2023-04-30T04:32:04.552Z,27.25
2023-04-30T04:33:06.167Z,28.00
2023-04-30T04:34:08.623Z,27.50
2023-04-30T04:35:11.378Z,25.25
2023-04-30T04:36:13.732Z,26.50
2023-04-30T04:37:15.796Z,22.75
2023-04-30T04:38:18.418Z,21.50
2023-04-30T04:39:19.805Z,25.25
2023-04-30T04:40:22.429Z,26.00
2023-04-30T04:41:24.378Z,24.25
2023-04-30T04:42:26.898Z,27.00
2023-04-30T04:43:28.461Z,25.25
2023-04-30T04:44:30.859Z,28.00
2023-04-30T04:45:33.563Z,30.00
2023-04-30T04:46:37.835Z,30.00
2023-04-30T04:47:39.380Z,25.25
2023-04-30T04:48:41.753Z,28.00
2023-04-30T04:49:43.156Z,22.00
2023-04-30T04:50:46.889Z,25.75
2023-04-30T04:51:48.308Z,23.00
2023-04-30T04:52:50.719Z,28.75
2023-04-30T04:53:52.240Z,30.25
2023-04-30T04:54:54.708Z,34.00
2023-04-30T04:55:56.891Z,33.50
2023-04-30T04:56:59.255Z,37.75
2023-04-30T04:58:00.840Z,42.75
2023-04-30T04:59:03.252Z,39.75
2023-04-30T05:00:06.281Z,44.75
2023-04-30T05:01:09.146Z,43.25
2023-04-30T05:02:10.655Z,40.75
2023-04-30T05:03:14.538Z,50.75
2023-04-30T05:04:16.052Z,46.50
2023-04-30T05:05:18.423Z,38.75
2023-04-30T05:06:21.257Z,37.00
2023-04-30T05:07:23.631Z,36.25
2023-04-30T05:08:25.186Z,32.00
2023-04-30T05:09:27.559Z,30.50
2023-04-30T05:10:28.948Z,33.00
2023-04-30T05:11:31.313Z,32.75
2023-04-30T05:12:32.981Z,29.50
2023-04-30T05:13:35.468Z,34.25
2023-04-30T05:14:37.387Z,34.75
2023-04-30T05:15:39.756Z,32.50
2023-04-30T05:16:41.181Z,39.50
2023-04-30T05:17:43.609Z,37.50
2023-04-30T05:18:45.187Z,35.25
2023-04-30T05:19:50.522Z,40.75
2023-04-30T05:20:51.970Z,32.50
2023-04-30T05:21:55.659Z,31.25
2023-04-30T05:22:57.056Z,35.25
2023-04-30T05:23:59.569Z,38.00
2023-04-30T05:25:00.970Z,34.25
2023-04-30T05:26:03.801Z,35.25
2023-04-30T05:27:05.513Z,43.75
2023-04-30T05:28:07.940Z,32.75
2023-04-30T05:29:10.638Z,30.50
2023-04-30T05:30:13.160Z,34.25
2023-04-30T05:31:14.614Z,34.25
2023-04-30T05:32:17.036Z,31.00
2023-04-30T05:33:19.020Z,30.50
2023-04-30T05:34:21.499Z,32.25
2023-04-30T05:35:22.891Z,26.75
2023-04-30T05:36:25.247Z,32.50
2023-04-30T05:37:28.951Z,35.25
2023-04-30T05:38:30.474Z,32.50
2023-04-30T05:39:33.035Z,34.00
2023-04-30T05:40:34.458Z,34.00
2023-04-30T05:41:36.834Z,40.00
2023-04-30T05:42:40.681Z,37.00
2023-04-30T05:43:43.066Z,37.25
2023-04-30T05:44:44.683Z,36.00
2023-04-30T05:45:47.119Z,40.25
2023-04-30T05:46:48.578Z,39.50
2023-04-30T05:47:51.005Z,34.75
2023-04-30T05:48:52.461Z,35.00
2023-04-30T05:49:55.317Z,36.25
2023-04-30T05:50:57.875Z,50.00
2023-04-30T05:52:02.179Z,49.75
2023-04-30T05:53:05.902Z,49.75
2023-04-30T05:54:07.407Z,50.50
2023-04-30T05:55:11.433Z,52.00
2023-04-30T05:56:13.177Z,51.25
2023-04-30T05:57:15.600Z,47.00
2023-04-30T05:58:16.993Z,47.75
2023-04-30T05:59:19.436Z,48.50
2023-04-30T06:00:21.036Z,48.50
2023-04-30T06:01:24.128Z,50.00
2023-04-30T06:02:25.644Z,46.75
2023-04-30T06:03:28.081Z,45.75
2023-04-30T06:04:29.502Z,45.75
2023-04-30T06:05:32.060Z,45.50
2023-04-30T06:06:33.514Z,42.75
2023-04-30T06:07:35.966Z,46.00
2023-04-30T06:08:42.033Z,45.25
2023-04-30T06:09:44.404Z,44.75
2023-04-30T06:10:46.624Z,47.75
2023-04-30T06:11:50.399Z,46.00
2023-04-30T06:12:51.834Z,46.50
2023-04-30T06:13:54.205Z,47.75
2023-04-30T06:14:55.595Z,46.00
2023-04-30T06:15:58.035Z,45.00
2023-04-30T06:16:59.466Z,46.50
2023-04-30T06:18:01.900Z,45.75
2023-04-30T06:19:03.366Z,49.50
2023-04-30T06:20:07.200Z,50.75
2023-04-30T06:21:09.801Z,46.75
2023-04-30T06:22:11.207Z,47.75
2023-04-30T06:23:13.698Z,48.50
2023-04-30T06:24:16.444Z,48.00
2023-04-30T06:25:18.912Z,46.50
2023-04-30T06:26:20.390Z,45.50
2023-04-30T06:27:23.454Z,48.50
2023-04-30T06:28:25.882Z,50.50
2023-04-30T06:29:27.295Z,48.50
2023-04-30T06:30:31.387Z,47.25
2023-04-30T06:31:32.929Z,48.75
2023-04-30T06:32:35.937Z,49.50
2023-04-30T06:33:37.535Z,48.50
2023-04-30T06:34:39.910Z,49.00
2023-04-30T06:35:41.426Z,48.75
2023-04-30T06:36:43.811Z,45.75
2023-04-30T06:37:45.531Z,48.00
2023-04-30T06:38:48.031Z,51.50
2023-04-30T06:39:51.646Z,48.50
2023-04-30T06:40:54.027Z,47.00
2023-04-30T06:41:55.848Z,48.00
2023-04-30T06:42:58.381Z,51.25
2023-04-30T06:43:59.816Z,52.00
2023-04-30T06:45:02.478Z,50.00
2023-04-30T06:46:05.127Z,48.25
2023-04-30T06:47:06.666Z,52.00
2023-04-30T06:48:09.189Z,46.75
2023-04-30T06:49:11.042Z,44.50
2023-04-30T06:50:15.535Z,49.25
2023-04-30T06:51:16.966Z,47.75
2023-04-30T06:52:19.437Z,41.50
2023-04-30T06:53:21.044Z,46.25
2023-04-30T06:54:23.932Z,45.75
2023-04-30T06:55:28.088Z,45.75
2023-04-30T06:56:29.505Z,42.50
2023-04-30T06:57:31.908Z,39.00
2023-04-30T06:58:34.320Z,38.75
2023-04-30T06:59:35.753Z,38.25
2023-04-30T07:00:38.114Z,38.50
2023-04-30T07:01:40.943Z,39.00
2023-04-30T07:02:43.718Z,38.50
2023-04-30T07:03:45.286Z,36.75
2023-04-30T07:04:49.240Z,37.00
2023-04-30T07:05:51.638Z,40.25
2023-04-30T07:06:54.001Z,41.00
2023-04-30T07:07:55.498Z,38.75
2023-04-30T07:08:57.861Z,42.00
2023-04-30T07:10:00.317Z,37.75
2023-04-30T07:11:03.925Z,36.75
2023-04-30T07:12:06.429Z,42.25
2023-04-30T07:13:08.361Z,40.75
2023-04-30T07:14:10.754Z,37.50
2023-04-30T07:15:12.166Z,41.75
2023-04-30T07:16:16.763Z,41.00
2023-04-30T07:17:18.305Z,37.75
2023-04-30T07:18:20.730Z,41.50
2023-04-30T07:19:23.472Z,34.25
2023-04-30T07:20:25.925Z,38.00
2023-04-30T07:21:27.920Z,39.75
2023-04-30T07:22:30.615Z,41.00
2023-04-30T07:23:32.108Z,36.00
2023-04-30T07:24:34.840Z,41.00
2023-04-30T07:25:36.272Z,38.00
2023-04-30T07:26:40.045Z,37.00
2023-04-30T07:27:42.432Z,37.00
2023-04-30T07:28:43.947Z,36.50
2023-04-30T07:29:46.355Z,42.00
2023-04-30T07:30:47.914Z,33.50
2023-04-30T07:31:51.007Z,40.25
2023-04-30T07:32:53.449Z,35.00
2023-04-30T07:33:55.879Z,42.25
2023-04-30T07:34:58.340Z,34.75
2023-04-30T07:35:59.779Z,36.25
2023-04-30T07:37:02.829Z,35.75
2023-04-30T07:38:04.828Z,35.75
2023-04-30T07:39:07.995Z,38.75
2023-04-30T07:40:15.304Z,31.75
2023-04-30T07:41:21.831Z,34.75
2023-04-30T07:42:24.712Z,39.00
2023-04-30T07:43:27.239Z,32.75
2023-04-30T07:44:28.672Z,33.75
2023-04-30T07:45:31.774Z,36.00
2023-04-30T07:46:33.417Z,31.25
2023-04-30T07:47:35.929Z,30.00
2023-04-30T07:48:37.749Z,32.50
2023-04-30T07:49:40.112Z,32.00
2023-04-30T07:50:42.466Z,32.75
2023-04-30T07:51:43.971Z,33.25
2023-04-30T07:52:46.469Z,26.25
2023-04-30T07:53:47.936Z,28.50
2023-04-30T07:54:50.345Z,28.00
2023-04-30T07:55:52.743Z,31.25
2023-04-30T07:58:03.947Z,24.50
2023-04-30T07:59:05.397Z,24.75
2023-04-30T08:00:08.493Z,25.75
2023-04-30T08:01:09.925Z,26.25
2023-04-30T08:02:12.482Z,29.75
2023-04-30T08:03:15.101Z,26.00
2023-04-30T08:04:16.681Z,17.25
2023-04-30T08:05:19.197Z,14.25
2023-04-30T08:06:20.776Z,14.00
2023-04-30T08:07:26.170Z,14.50
2023-04-30T08:08:27.969Z,18.25
2023-04-30T08:09:30.413Z,17.50
2023-04-30T08:10:32.042Z,17.50
2023-04-30T08:11:34.807Z,20.50
2023-04-30T08:12:36.362Z,16.00
2023-04-30T08:13:40.191Z,17.75
2023-04-30T08:14:41.701Z,19.00
2023-04-30T08:15:44.112Z,21.75
2023-04-30T08:16:45.577Z,17.00
2023-04-30T08:17:48.334Z,19.00
2023-04-30T08:18:49.855Z,17.50
2023-04-30T08:19:52.620Z,15.75
2023-04-30T08:20:54.254Z,18.00
2023-04-30T08:21:56.649Z,18.50
2023-04-30T08:22:59.034Z,19.50
2023-04-30T08:24:00.473Z,15.25
2023-04-30T08:25:03.098Z,15.25
2023-04-30T08:26:05.920Z,18.75
2023-04-30T08:27:08.279Z,15.00
2023-04-30T08:28:09.785Z,10.50
2023-04-30T08:29:14.213Z,10.75
2023-04-30T08:30:15.990Z,9.00
2023-04-30T08:31:18.685Z,7.75
2023-04-30T08:32:20.561Z,8.00
2023-04-30T08:33:23.118Z,7.00
2023-04-30T08:34:25.657Z,7.25
2023-04-30T08:35:29.699Z,7.75
2023-04-30T08:36:31.503Z,11.00
2023-04-30T08:37:34.319Z,9.75
2023-04-30T08:38:36.021Z,7.25
2023-04-30T08:39:38.397Z,10.50
2023-04-30T08:40:51.104Z,10.00
2023-04-30T08:41:55.190Z,6.75
2023-04-30T08:43:00.256Z,6.25
2023-04-30T08:44:02.823Z,6.75
2023-04-30T08:45:06.354Z,9.75
2023-04-30T08:46:09.031Z,8.00
2023-04-30T08:47:10.596Z,7.75
2023-04-30T08:48:15.167Z,7.00
2023-04-30T08:49:17.627Z,7.75
2023-04-30T08:50:19.378Z,9.00
2023-04-30T08:51:21.984Z,8.00
2023-04-30T08:52:23.519Z,10.00
2023-04-30T08:53:25.886Z,8.50
2023-04-30T08:54:28.069Z,7.00
2023-04-30T08:55:30.688Z,9.00
2023-04-30T08:56:33.593Z,7.00
2023-04-30T08:57:37.011Z,6.50
2023-04-30T08:58:39.773Z,5.25
2023-04-30T08:59:42.175Z,7.00
2023-04-30T09:00:45.704Z,6.75
2023-04-30T09:01:48.576Z,7.25
2023-04-30T09:02:51.891Z,7.00
2023-04-30T09:03:53.515Z,6.00
2023-04-30T09:04:56.309Z,7.00
2023-04-30T09:05:58.233Z,8.00
2023-04-30T09:07:03.583Z,6.25
2023-04-30T09:08:07.702Z,6.00
2023-04-30T09:09:09.291Z,3.50
2023-04-30T09:10:18.075Z,4.00
2023-04-30T09:11:22.976Z,4.00
2023-04-30T09:12:25.496Z,5.50
2023-04-30T09:13:40.068Z,4.00
2023-04-30T09:14:42.645Z,6.00
2023-04-30T09:15:46.758Z,6.00
2023-04-30T09:16:49.724Z,4.50
2023-04-30T09:17:51.142Z,3.50
2023-04-30T09:18:53.669Z,4.00
2023-04-30T09:19:55.483Z,4.00
2023-04-30T09:20:58.855Z,3.75
2023-04-30T09:22:01.914Z,4.00
2023-04-30T09:23:06.553Z,3.25
2023-04-30T09:24:09.102Z,4.00
2023-04-30T09:25:11.229Z,3.75
2023-04-30T09:26:19.634Z,3.00
2023-04-30T09:27:22.090Z,3.00
2023-04-30T09:28:26.767Z,4.00
2023-04-30T09:29:37.098Z,4.00
2023-04-30T09:30:39.687Z,3.25
2023-04-30T09:31:44.466Z,3.00
2023-04-30T09:32:55.791Z,5.75
2023-04-30T09:33:58.296Z,5.75
2023-04-30T09:35:00.870Z,4.75
2023-04-30T09:36:08.127Z,3.00
2023-04-30T09:37:09.688Z,3.75
2023-04-30T09:38:26.084Z,2.75
2023-04-30T09:39:28.453Z,4.00
2023-04-30T09:40:34.545Z,3.00
2023-04-30T09:41:36.920Z,4.00
2023-04-30T09:42:39.740Z,3.50
2023-04-30T09:43:44.592Z,3.00
2023-04-30T09:44:47.126Z,3.75
2023-04-30T09:45:51.230Z,3.25
2023-04-30T09:46:54.958Z,3.00
2023-04-30T09:48:09.048Z,3.75
2023-04-30T09:49:18.548Z,3.25
2023-04-30T09:50:19.958Z,3.00
2023-04-30T09:51:22.329Z,3.25
2023-04-30T09:52:24.715Z,3.00
2023-04-30T09:53:26.599Z,2.50
2023-04-30T09:54:29.636Z,3.25
2023-04-30T09:55:31.048Z,3.00
2023-04-30T09:56:33.433Z,2.75
2023-04-30T09:57:36.257Z,3.75
2023-04-30T09:58:38.752Z,3.00
2023-04-30T09:59:43.502Z,2.00
2023-04-30T10:00:45.511Z,2.00
2023-04-30T10:01:47.931Z,2.00
2023-04-30T10:02:51.712Z,2.00
2023-04-30T10:03:53.150Z,4.00
2023-04-30T10:04:56.733Z,2.00
2023-04-30T10:05:58.412Z,2.00
2023-04-30T10:07:01.482Z,3.50
2023-04-30T10:08:02.986Z,4.50
2023-04-30T10:09:05.393Z,3.00
2023-04-30T10:10:08.020Z,2.00
2023-04-30T10:11:12.859Z,2.00
2023-04-30T10:12:14.641Z,2.00
2023-04-30T10:13:18.857Z,2.00
2023-04-30T10:14:21.565Z,2.00
2023-04-30T10:15:24.206Z,2.00
2023-04-30T10:16:29.386Z,1.75
2023-04-30T10:17:30.862Z,2.00
2023-04-30T10:18:35.617Z,2.00
2023-04-30T10:19:39.119Z,2.00
2023-04-30T10:20:40.588Z,3.00
2023-04-30T10:21:43.551Z,2.00
2023-04-30T10:22:46.249Z,2.25
2023-04-30T10:23:48.629Z,2.00
2023-04-30T10:24:50.046Z,2.00
2023-04-30T10:25:52.946Z,1.00
2023-04-30T10:26:55.338Z,2.00
2023-04-30T10:27:56.767Z,2.00
2023-04-30T10:29:01.022Z,2.00
2023-04-30T10:30:03.501Z,2.00
2023-04-30T10:31:04.928Z,2.00
2023-04-30T10:32:07.315Z,2.00
2023-04-30T10:33:11.857Z,2.00
2023-04-30T10:34:19.000Z,2.00
2023-04-30T10:35:21.208Z,3.00
2023-04-30T10:36:26.007Z,1.00
2023-04-30T10:37:28.263Z,2.00
2023-04-30T10:38:32.078Z,3.00
2023-04-30T10:39:33.729Z,3.00
2023-04-30T10:40:36.794Z,2.00
2023-04-30T10:41:38.241Z,2.00
2023-04-30T10:42:40.788Z,2.00
2023-04-30T10:43:42.357Z,1.50
2023-04-30T10:44:44.723Z,2.00
2023-04-30T10:45:46.206Z,1.75
2023-04-30T10:46:48.790Z,3.00
2023-04-30T10:47:50.327Z,2.00
2023-04-30T10:48:54.813Z,2.00
2023-04-30T10:50:04.312Z,1.75
2023-04-30T10:51:06.190Z,2.00
2023-04-30T10:52:08.560Z,2.00
2023-04-30T10:53:12.324Z,3.00
2023-04-30T10:54:15.001Z,2.25
2023-04-30T10:55:17.030Z,3.00
2023-04-30T10:56:37.334Z,3.00
2023-04-30T10:57:43.597Z,2.50
2023-04-30T10:58:45.469Z,2.00
2023-04-30T10:59:53.095Z,3.00
2023-04-30T11:01:01.601Z,2.00
2023-04-30T11:02:04.161Z,2.00
2023-04-30T11:03:05.902Z,2.00
2023-04-30T11:04:08.711Z,2.00
2023-04-30T11:05:12.776Z,2.25
2023-04-30T11:06:15.640Z,2.00
2023-04-30T11:07:18.090Z,2.00
2023-04-30T11:08:21.193Z,2.25
2023-04-30T11:09:25.582Z,2.00
2023-04-30T11:10:28.883Z,2.00
2023-04-30T11:11:33.481Z,2.00
2023-04-30T11:12:36.103Z,1.25
2023-04-30T11:13:42.020Z,2.00
2023-04-30T11:14:44.942Z,2.00
2023-04-30T11:15:48.130Z,2.00
2023-04-30T11:16:49.779Z,2.00
2023-04-30T11:17:52.274Z,1.75
2023-04-30T11:18:53.732Z,1.50
2023-04-30T11:19:56.446Z,2.00
2023-04-30T11:20:59.526Z,1.75
2023-04-30T11:22:17.882Z,2.00
2023-04-30T11:23:35.697Z,2.00
2023-04-30T11:24:50.573Z,3.00
2023-04-30T11:25:54.799Z,1.75
2023-04-30T11:27:03.334Z,2.00
2023-04-30T11:28:05.746Z,1.00
2023-04-30T11:29:07.291Z,1.00
2023-04-30T11:30:11.618Z,2.00
2023-04-30T11:31:15.546Z,1.75
2023-04-30T11:32:17.870Z,2.00
2023-04-30T11:33:20.364Z,1.25
2023-04-30T11:34:21.761Z,2.00
2023-04-30T11:35:24.165Z,2.00
2023-04-30T11:36:26.963Z,1.00
2023-04-30T11:37:31.093Z,1.00
2023-04-30T11:38:35.251Z,2.00
2023-04-30T11:39:36.705Z,2.00
2023-04-30T11:40:39.207Z,2.00
2023-04-30T11:41:40.932Z,2.00
2023-04-30T11:42:46.136Z,2.00
2023-04-30T11:43:47.822Z,1.75
2023-04-30T11:44:50.334Z,1.75
2023-04-30T11:45:58.959Z,2.25
2023-04-30T11:47:01.412Z,2.00
2023-04-30T11:48:03.970Z,1.75
2023-04-30T11:49:05.464Z,2.00
2023-04-30T11:50:08.679Z,2.00
2023-04-30T11:51:20.468Z,2.00
2023-04-30T11:52:24.921Z,2.00
2023-04-30T11:53:31.031Z,2.00
2023-04-30T11:54:33.453Z,2.00
2023-04-30T11:55:36.001Z,3.00
2023-04-30T11:56:39.517Z,1.25
2023-04-30T11:57:43.586Z,2.00
2023-04-30T11:58:47.207Z,1.50
2023-04-30T11:59:49.253Z,2.00
2023-04-30T12:00:52.359Z,2.00
2023-04-30T12:01:54.038Z,2.00
2023-04-30T12:02:56.786Z,2.00
2023-04-30T12:03:59.418Z,2.00
2023-04-30T12:05:00.921Z,3.00
2023-04-30T12:06:03.465Z,2.75
2023-04-30T12:07:08.596Z,2.25
2023-04-30T12:08:12.944Z,2.00
2023-04-30T12:09:14.390Z,2.00
2023-04-30T12:10:16.832Z,2.00
2023-04-30T12:11:25.103Z,1.50
2023-04-30T12:12:27.093Z,2.00
2023-04-30T12:13:31.400Z,2.00
2023-04-30T12:14:34.826Z,2.00
2023-04-30T12:15:39.153Z,2.00
2023-04-30T12:16:41.264Z,2.25
2023-04-30T12:17:43.747Z,2.00
2023-04-30T12:18:45.231Z,2.25
2023-04-30T12:19:47.617Z,2.75
2023-04-30T12:20:50.016Z,2.00
2023-04-30T12:21:54.919Z,2.75
2023-04-30T12:22:56.410Z,2.00
2023-04-30T12:24:02.760Z,1.00
2023-04-30T12:25:09.405Z,2.00
2023-04-30T12:26:11.825Z,2.00
2023-04-30T12:27:13.319Z,2.00
2023-04-30T12:28:15.676Z,2.75
2023-04-30T12:29:18.829Z,2.00
2023-04-30T12:30:21.240Z,2.75
2023-04-30T12:31:23.670Z,2.00
2023-04-30T12:32:25.347Z,3.25
2023-04-30T12:33:30.789Z,2.00
2023-04-30T12:34:33.787Z,2.00
2023-04-30T12:35:36.429Z,2.00
2023-04-30T12:36:38.788Z,2.00
2023-04-30T12:37:43.089Z,2.00
2023-04-30T12:38:45.472Z,2.00
2023-04-30T12:39:48.506Z,2.00
2023-04-30T12:40:50.900Z,2.00
2023-04-30T12:41:53.350Z,2.00
2023-04-30T12:42:59.703Z,2.00
2023-04-30T12:44:17.900Z,2.00
2023-04-30T12:45:35.157Z,3.00
2023-04-30T12:46:36.770Z,3.25
2023-04-30T12:47:40.702Z,3.50
2023-04-30T12:48:45.376Z,2.75
2023-04-30T12:49:47.759Z,4.00
2023-04-30T12:50:52.388Z,4.25
2023-04-30T12:51:58.731Z,2.00
2023-04-30T12:53:01.890Z,2.00
2023-04-30T12:54:04.306Z,3.00
2023-04-30T12:55:18.126Z,2.00
2023-04-30T12:56:22.281Z,2.00
2023-04-30T12:57:24.704Z,2.00
2023-04-30T12:58:30.383Z,2.00
2023-04-30T12:59:33.400Z,2.00
2023-04-30T13:00:44.756Z,2.00
2023-04-30T13:01:47.182Z,3.00
2023-04-30T13:02:50.263Z,2.00
2023-04-30T13:03:52.337Z,2.00
2023-04-30T13:04:55.346Z,2.00
2023-04-30T13:05:58.515Z,2.00
2023-04-30T13:07:00.920Z,3.00
2023-04-30T13:08:02.358Z,5.00
2023-04-30T13:09:05.399Z,2.50
2023-04-30T13:10:08.168Z,3.50
2023-04-30T13:11:11.632Z,3.00
2023-04-30T13:12:14.169Z,2.75
2023-04-30T13:13:15.985Z,3.75
2023-04-30T13:14:18.671Z,2.00
2023-04-30T13:15:20.096Z,2.50
2023-04-30T13:16:22.802Z,3.00
2023-04-30T13:17:26.350Z,2.00
2023-04-30T13:18:27.906Z,3.00
2023-04-30T13:19:30.321Z,6.00
2023-04-30T13:20:31.795Z,3.75
2023-04-30T13:21:34.848Z,5.00
2023-04-30T13:22:37.364Z,2.25
2023-04-30T13:23:49.051Z,2.00
2023-04-30T13:24:54.098Z,3.00
2023-04-30T13:25:55.726Z,2.00
2023-04-30T13:26:59.747Z,3.00
2023-04-30T13:28:01.186Z,3.00
2023-04-30T13:29:04.102Z,2.00
2023-04-30T13:30:07.056Z,2.00
2023-04-30T13:31:08.492Z,2.00
2023-04-30T13:32:11.072Z,2.00
2023-04-30T13:33:12.713Z,2.75
2023-04-30T13:34:15.523Z,3.00
2023-04-30T13:35:17.051Z,3.00
2023-04-30T13:36:19.415Z,3.00
2023-04-30T13:37:20.988Z,2.75
2023-04-30T13:38:23.396Z,3.00
2023-04-30T13:39:25.853Z,4.50
2023-04-30T13:40:27.483Z,4.00
2023-04-30T13:41:29.860Z,7.00
2023-04-30T13:42:35.881Z,2.25